sensor_id;sensor_type;location;lat;lon;timestamp;temperature;humidity
23991;DHT22;12205;50.600;4.608;2023-04-01T00:01:57;9.10;99.90
23991;DHT22;12205;50.600;4.608;2023-04-01T00:04:24;9.20;99.90
23991;DHT22;12205;50.600;4.608;2023-04-01T00:06:51;9.20;99.90
23991;DHT22;12205;50.600;4.608;2023-04-01T00:09:18;9.10;99.90
23991;DHT22;12205;50.600;4.608;2023-04-01T00:11:47;9.10;99.90
23991;DHT22;12205;50.600;4.608;2023-04-01T00:14:15;9.10;99.90
23991;DHT22;12205;50.600;4.608;2023-04-01T00:16:42;9.10;99.90
23991;DHT22;12205;50.600;4.608;2023-04-01T00:19:09;9.10;99.90
23991;DHT22;12205;50.600;4.608;2023-04-01T00:21:36;9.10;99.90
23991;DHT22;12205;50.600;4.608;2023-04-01T00:24:03;9.10;99.90
23991;DHT22;12205;50.600;4.608;2023-04-01T00:26:31;9.10;99.90
23991;DHT22;12205;50.600;4.608;2023-04-01T00:28:59;9.10;99.90
23991;DHT22;12205;50.600;4.608;2023-04-01T00:31:27;9.10;99.90
23991;DHT22;12205;50.600;4.608;2023-04-01T00:33:54;9.10;99.90
23991;DHT22;12205;50.600;4.608;2023-04-01T00:36:21;9.10;99.90
23991;DHT22;12205;50.600;4.608;2023-04-01T00:38:49;9.10;99.90
23991;DHT22;12205;50.600;4.608;2023-04-01T00:41:18;9.00;99.90
23991;DHT22;12205;50.600;4.608;2023-04-01T00:43:49;9.10;99.90
23991;DHT22;12205;50.600;4.608;2023-04-01T00:46:19;9.00;99.90
23991;DHT22;12205;50.600;4.608;2023-04-01T00:48:49;9.00;99.90
23991;DHT22;12205;50.600;4.608;2023-04-01T00:51:23;9.00;99.90
23991;DHT22;12205;50.600;4.608;2023-04-01T00:53:54;9.10;99.90
23991;DHT22;12205;50.600;4.608;2023-04-01T00:56:24;9.00;99.90
23991;DHT22;12205;50.600;4.608;2023-04-01T00:58:58;9.00;99.90
23991;DHT22;12205;50.600;4.608;2023-04-01T01:01:30;9.00;99.90
23991;DHT22;12205;50.600;4.608;2023-04-01T01:03:59;9.00;99.90
23991;DHT22;12205;50.600;4.608;2023-04-01T01:06:38;9.00;99.90
23991;DHT22;12205;50.600;4.608;2023-04-01T01:09:25;9.00;99.90
23991;DHT22;12205;50.600;4.608;2023-04-01T01:12:04;9.10;99.90
23991;DHT22;12205;50.600;4.608;2023-04-01T01:14:48;9.10;99.90
23991;DHT22;12205;50.600;4.608;2023-04-01T01:17:29;9.10;99.90
23991;DHT22;12205;50.600;4.608;2023-04-01T01:20:24;9.10;99.90
23991;DHT22;12205;50.600;4.608;2023-04-01T01:26:40;9.10;99.90
23991;DHT22;12205;50.600;4.608;2023-04-01T01:29:32;9.10;99.90
23991;DHT22;12205;50.600;4.608;2023-04-01T01:32:17;9.10;99.90
23991;DHT22;12205;50.600;4.608;2023-04-01T01:35:06;9.10;99.90
23991;DHT22;12205;50.600;4.608;2023-04-01T01:37:43;9.10;99.90
23991;DHT22;12205;50.600;4.608;2023-04-01T01:40:13;9.10;99.90
23991;DHT22;12205;50.600;4.608;2023-04-01T01:42:45;9.10;99.90
23991;DHT22;12205;50.600;4.608;2023-04-01T01:45:20;9.10;99.90
23991;DHT22;12205;50.600;4.608;2023-04-01T01:47:50;9.10;99.90
23991;DHT22;12205;50.600;4.608;2023-04-01T01:50:21;9.10;99.90
23991;DHT22;12205;50.600;4.608;2023-04-01T01:52:51;9.10;99.90
23991;DHT22;12205;50.600;4.608;2023-04-01T01:55:27;9.10;99.90
23991;DHT22;12205;50.600;4.608;2023-04-01T01:58:00;9.20;99.90
23991;DHT22;12205;50.600;4.608;2023-04-01T02:00:34;9.20;99.90
23991;DHT22;12205;50.600;4.608;2023-04-01T02:03:04;9.20;99.90
23991;DHT22;12205;50.600;4.608;2023-04-01T02:05:33;9.20;99.90
23991;DHT22;12205;50.600;4.608;2023-04-01T02:08:10;9.20;99.90
23991;DHT22;12205;50.600;4.608;2023-04-01T02:10:43;9.20;99.90
23991;DHT22;12205;50.600;4.608;2023-04-01T02:13:21;9.20;99.90
23991;DHT22;12205;50.600;4.608;2023-04-01T02:15:58;9.20;99.90
23991;DHT22;12205;50.600;4.608;2023-04-01T02:18:29;9.20;99.90
23991;DHT22;12205;50.600;4.608;2023-04-01T02:21:03;9.20;99.90
23991;DHT22;12205;50.600;4.608;2023-04-01T02:23:33;9.20;99.90
23991;DHT22;12205;50.600;4.608;2023-04-01T02:26:04;9.20;99.90
23991;DHT22;12205;50.600;4.608;2023-04-01T02:28:34;9.20;99.90
23991;DHT22;12205;50.600;4.608;2023-04-01T02:31:08;9.20;99.90
23991;DHT22;12205;50.600;4.608;2023-04-01T02:33:39;9.20;99.90
23991;DHT22;12205;50.600;4.608;2023-04-01T02:36:10;9.20;99.90
23991;DHT22;12205;50.600;4.608;2023-04-01T02:38:40;9.20;99.90
23991;DHT22;12205;50.600;4.608;2023-04-01T02:41:08;9.20;99.90
23991;DHT22;12205;50.600;4.608;2023-04-01T02:43:35;9.20;99.90
23991;DHT22;12205;50.600;4.608;2023-04-01T02:46:02;9.20;99.90
23991;DHT22;12205;50.600;4.608;2023-04-01T02:48:30;9.20;99.90
23991;DHT22;12205;50.600;4.608;2023-04-01T02:50:57;9.20;99.90
23991;DHT22;12205;50.600;4.608;2023-04-01T02:53:26;9.20;99.90
23991;DHT22;12205;50.600;4.608;2023-04-01T02:55:53;9.20;99.90
23991;DHT22;12205;50.600;4.608;2023-04-01T02:58:20;9.20;99.90
23991;DHT22;12205;50.600;4.608;2023-04-01T03:00:47;9.20;99.90
23991;DHT22;12205;50.600;4.608;2023-04-01T03:03:14;9.20;99.90
23991;DHT22;12205;50.600;4.608;2023-04-01T03:05:42;9.20;99.90
23991;DHT22;12205;50.600;4.608;2023-04-01T03:08:09;9.20;99.90
23991;DHT22;12205;50.600;4.608;2023-04-01T03:10:38;9.10;99.90
23991;DHT22;12205;50.600;4.608;2023-04-01T03:13:06;9.10;99.90
23991;DHT22;12205;50.600;4.608;2023-04-01T03:15:33;9.10;99.90
23991;DHT22;12205;50.600;4.608;2023-04-01T03:18:01;9.10;99.90
23991;DHT22;12205;50.600;4.608;2023-04-01T03:20:28;9.10;99.90
23991;DHT22;12205;50.600;4.608;2023-04-01T03:22:55;9.10;99.90
23991;DHT22;12205;50.600;4.608;2023-04-01T03:25:23;9.10;99.90
23991;DHT22;12205;50.600;4.608;2023-04-01T03:27:52;9.10;99.90
23991;DHT22;12205;50.600;4.608;2023-04-01T03:30:19;9.10;99.90
23991;DHT22;12205;50.600;4.608;2023-04-01T03:32:49;9.10;99.90
23991;DHT22;12205;50.600;4.608;2023-04-01T03:35:17;9.10;99.90
23991;DHT22;12205;50.600;4.608;2023-04-01T03:37:45;9.20;99.90
23991;DHT22;12205;50.600;4.608;2023-04-01T03:40:12;9.20;99.90
23991;DHT22;12205;50.600;4.608;2023-04-01T03:42:40;9.20;99.90
23991;DHT22;12205;50.600;4.608;2023-04-01T03:45:10;9.20;99.90
23991;DHT22;12205;50.600;4.608;2023-04-01T03:47:38;9.20;99.90
23991;DHT22;12205;50.600;4.608;2023-04-01T03:50:07;9.20;99.90
23991;DHT22;12205;50.600;4.608;2023-04-01T03:52:35;9.10;99.90
23991;DHT22;12205;50.600;4.608;2023-04-01T03:55:03;9.10;99.90
23991;DHT22;12205;50.600;4.608;2023-04-01T03:57:32;9.10;99.90
23991;DHT22;12205;50.600;4.608;2023-04-01T04:00:09;9.10;99.90
23991;DHT22;12205;50.600;4.608;2023-04-01T04:02:40;9.10;99.90
23991;DHT22;12205;50.600;4.608;2023-04-01T04:05:08;9.20;99.90
23991;DHT22;12205;50.600;4.608;2023-04-01T04:07:36;9.10;99.90
23991;DHT22;12205;50.600;4.608;2023-04-01T04:10:07;9.10;99.90
23991;DHT22;12205;50.600;4.608;2023-04-01T04:12:35;9.10;99.90
23991;DHT22;12205;50.600;4.608;2023-04-01T04:15:02;9.10;99.90
23991;DHT22;12205;50.600;4.608;2023-04-01T04:17:31;9.10;99.90
23991;DHT22;12205;50.600;4.608;2023-04-01T04:19:59;9.10;99.90
23991;DHT22;12205;50.600;4.608;2023-04-01T04:22:26;9.10;99.90
23991;DHT22;12205;50.600;4.608;2023-04-01T04:24:53;9.00;99.90
23991;DHT22;12205;50.600;4.608;2023-04-01T04:27:21;9.00;99.90
23991;DHT22;12205;50.600;4.608;2023-04-01T04:30:07;9.00;99.90
23991;DHT22;12205;50.600;4.608;2023-04-01T04:32:37;9.00;99.90
23991;DHT22;12205;50.600;4.608;2023-04-01T04:35:06;9.00;99.90
23991;DHT22;12205;50.600;4.608;2023-04-01T04:37:34;9.00;99.90
23991;DHT22;12205;50.600;4.608;2023-04-01T04:40:04;9.10;99.90
23991;DHT22;12205;50.600;4.608;2023-04-01T04:42:33;9.10;99.90
23991;DHT22;12205;50.600;4.608;2023-04-01T04:45:06;9.10;99.90
23991;DHT22;12205;50.600;4.608;2023-04-01T04:47:35;9.00;99.90
23991;DHT22;12205;50.600;4.608;2023-04-01T04:50:04;9.10;99.90
23991;DHT22;12205;50.600;4.608;2023-04-01T04:52:32;9.10;99.90
23991;DHT22;12205;50.600;4.608;2023-04-01T04:54:59;9.00;99.90
23991;DHT22;12205;50.600;4.608;2023-04-01T04:57:26;9.00;99.90
23991;DHT22;12205;50.600;4.608;2023-04-01T04:59:55;9.00;99.90
23991;DHT22;12205;50.600;4.608;2023-04-01T05:02:40;9.00;99.90
23991;DHT22;12205;50.600;4.608;2023-04-01T05:05:08;9.00;99.90
23991;DHT22;12205;50.600;4.608;2023-04-01T05:07:36;8.90;99.90
23991;DHT22;12205;50.600;4.608;2023-04-01T05:10:05;9.00;99.90
23991;DHT22;12205;50.600;4.608;2023-04-01T05:12:33;9.00;99.90
23991;DHT22;12205;50.600;4.608;2023-04-01T05:15:03;8.90;99.90
23991;DHT22;12205;50.600;4.608;2023-04-01T05:17:31;9.00;99.90
23991;DHT22;12205;50.600;4.608;2023-04-01T05:20:01;9.00;99.90
23991;DHT22;12205;50.600;4.608;2023-04-01T05:22:28;8.90;99.90
23991;DHT22;12205;50.600;4.608;2023-04-01T05:24:56;8.90;99.90
23991;DHT22;12205;50.600;4.608;2023-04-01T05:27:23;9.00;99.90
23991;DHT22;12205;50.600;4.608;2023-04-01T05:29:51;9.00;99.90
23991;DHT22;12205;50.600;4.608;2023-04-01T05:32:44;9.00;99.90
23991;DHT22;12205;50.600;4.608;2023-04-01T05:35:13;9.00;99.90
23991;DHT22;12205;50.600;4.608;2023-04-01T05:37:40;9.00;99.90
23991;DHT22;12205;50.600;4.608;2023-04-01T05:40:09;9.00;99.90
23991;DHT22;12205;50.600;4.608;2023-04-01T05:42:36;9.00;99.90
23991;DHT22;12205;50.600;4.608;2023-04-01T05:45:04;8.90;99.90
23991;DHT22;12205;50.600;4.608;2023-04-01T05:47:59;8.90;99.90
23991;DHT22;12205;50.600;4.608;2023-04-01T05:50:31;8.90;99.90
23991;DHT22;12205;50.600;4.608;2023-04-01T05:52:58;8.90;99.90
23991;DHT22;12205;50.600;4.608;2023-04-01T05:55:26;8.90;99.90
23991;DHT22;12205;50.600;4.608;2023-04-01T05:57:53;8.90;99.90
23991;DHT22;12205;50.600;4.608;2023-04-01T06:00:20;8.90;99.90
23991;DHT22;12205;50.600;4.608;2023-04-01T06:02:48;8.90;99.90
23991;DHT22;12205;50.600;4.608;2023-04-01T06:05:20;9.00;99.90
23991;DHT22;12205;50.600;4.608;2023-04-01T06:07:51;8.90;99.90
23991;DHT22;12205;50.600;4.608;2023-04-01T06:10:33;8.90;99.90
23991;DHT22;12205;50.600;4.608;2023-04-01T06:13:07;8.90;99.90
23991;DHT22;12205;50.600;4.608;2023-04-01T06:15:53;8.90;99.90
23991;DHT22;12205;50.600;4.608;2023-04-01T06:18:55;8.80;99.90
23991;DHT22;12205;50.600;4.608;2023-04-01T06:22:07;8.90;99.90
23991;DHT22;12205;50.600;4.608;2023-04-01T06:24:58;8.90;99.90
23991;DHT22;12205;50.600;4.608;2023-04-01T06:27:49;9.00;99.90
23991;DHT22;12205;50.600;4.608;2023-04-01T06:30:38;9.00;99.90
23991;DHT22;12205;50.600;4.608;2023-04-01T06:33:31;9.00;99.90
23991;DHT22;12205;50.600;4.608;2023-04-01T06:36:29;9.00;99.90
23991;DHT22;12205;50.600;4.608;2023-04-01T06:39:25;9.00;99.90
23991;DHT22;12205;50.600;4.608;2023-04-01T06:42:14;9.00;99.90
23991;DHT22;12205;50.600;4.608;2023-04-01T06:45:10;9.00;99.90
23991;DHT22;12205;50.600;4.608;2023-04-01T06:48:21;9.00;99.90
23991;DHT22;12205;50.600;4.608;2023-04-01T06:51:28;9.00;99.90
23991;DHT22;12205;50.600;4.608;2023-04-01T06:54:23;9.00;99.90
23991;DHT22;12205;50.600;4.608;2023-04-01T06:57:21;9.10;99.90
23991;DHT22;12205;50.600;4.608;2023-04-01T06:59:57;9.10;99.90
23991;DHT22;12205;50.600;4.608;2023-04-01T07:02:33;9.10;99.90
23991;DHT22;12205;50.600;4.608;2023-04-01T07:05:06;9.10;99.90
23991;DHT22;12205;50.600;4.608;2023-04-01T07:07:39;9.00;99.90
23991;DHT22;12205;50.600;4.608;2023-04-01T07:10:17;9.00;99.90
23991;DHT22;12205;50.600;4.608;2023-04-01T07:13:15;9.10;99.90
23991;DHT22;12205;50.600;4.608;2023-04-01T07:16:09;9.00;99.90
23991;DHT22;12205;50.600;4.608;2023-04-01T07:18:45;9.00;99.90
23991;DHT22;12205;50.600;4.608;2023-04-01T07:21:28;9.00;99.90
23991;DHT22;12205;50.600;4.608;2023-04-01T07:24:03;9.00;99.90
23991;DHT22;12205;50.600;4.608;2023-04-01T07:26:41;9.00;99.90
23991;DHT22;12205;50.600;4.608;2023-04-01T07:29:14;9.00;99.90
23991;DHT22;12205;50.600;4.608;2023-04-01T07:32:09;9.00;99.90
23991;DHT22;12205;50.600;4.608;2023-04-01T07:34:51;9.00;99.90
23991;DHT22;12205;50.600;4.608;2023-04-01T07:37:34;9.10;99.90
23991;DHT22;12205;50.600;4.608;2023-04-01T07:40:18;9.10;99.90
23991;DHT22;12205;50.600;4.608;2023-04-01T07:43:05;9.10;99.90
23991;DHT22;12205;50.600;4.608;2023-04-01T07:45:58;9.10;99.90
23991;DHT22;12205;50.600;4.608;2023-04-01T07:48:39;9.10;99.90
23991;DHT22;12205;50.600;4.608;2023-04-01T07:51:18;9.10;99.90
23991;DHT22;12205;50.600;4.608;2023-04-01T07:53:57;9.10;99.90
23991;DHT22;12205;50.600;4.608;2023-04-01T07:56:36;9.10;99.90
23991;DHT22;12205;50.600;4.608;2023-04-01T07:59:17;9.10;99.90
23991;DHT22;12205;50.600;4.608;2023-04-01T08:02:05;9.20;99.90
23991;DHT22;12205;50.600;4.608;2023-04-01T08:04:50;9.30;99.90
23991;DHT22;12205;50.600;4.608;2023-04-01T08:07:25;9.30;99.90
23991;DHT22;12205;50.600;4.608;2023-04-01T08:10:17;9.30;99.90
23991;DHT22;12205;50.600;4.608;2023-04-01T08:13:16;9.30;99.90
23991;DHT22;12205;50.600;4.608;2023-04-01T08:16:33;9.30;99.90
23991;DHT22;12205;50.600;4.608;2023-04-01T08:19:18;9.30;99.90
23991;DHT22;12205;50.600;4.608;2023-04-01T08:21:58;9.30;99.90
23991;DHT22;12205;50.600;4.608;2023-04-01T08:24:35;9.30;99.90
23991;DHT22;12205;50.600;4.608;2023-04-01T08:27:14;9.40;99.90
23991;DHT22;12205;50.600;4.608;2023-04-01T08:29:50;9.40;99.90
23991;DHT22;12205;50.600;4.608;2023-04-01T08:32:26;9.40;99.90
23991;DHT22;12205;50.600;4.608;2023-04-01T08:35:07;9.40;99.90
23991;DHT22;12205;50.600;4.608;2023-04-01T08:37:42;9.40;99.90
23991;DHT22;12205;50.600;4.608;2023-04-01T08:40:37;9.40;99.90
23991;DHT22;12205;50.600;4.608;2023-04-01T08:43:22;9.40;99.90
23991;DHT22;12205;50.600;4.608;2023-04-01T08:49:24;9.40;99.90
23991;DHT22;12205;50.600;4.608;2023-04-01T08:52:34;9.40;99.90
23991;DHT22;12205;50.600;4.608;2023-04-01T08:55:25;9.50;99.90
23991;DHT22;12205;50.600;4.608;2023-04-01T08:58:20;9.50;99.90
23991;DHT22;12205;50.600;4.608;2023-04-01T09:01:19;9.50;99.90
23991;DHT22;12205;50.600;4.608;2023-04-01T09:04:06;9.40;99.90
23991;DHT22;12205;50.600;4.608;2023-04-01T09:07:08;9.50;99.90
23991;DHT22;12205;50.600;4.608;2023-04-01T09:10:32;9.50;99.90
23991;DHT22;12205;50.600;4.608;2023-04-01T09:14:02;9.50;99.90
23991;DHT22;12205;50.600;4.608;2023-04-01T09:17:02;9.70;99.90
23991;DHT22;12205;50.600;4.608;2023-04-01T09:19:58;9.70;99.90
23991;DHT22;12205;50.600;4.608;2023-04-01T09:22:54;9.60;99.90
23991;DHT22;12205;50.600;4.608;2023-04-01T09:25:51;9.60;99.90
23991;DHT22;12205;50.600;4.608;2023-04-01T09:28:28;9.70;99.90
23991;DHT22;12205;50.600;4.608;2023-04-01T09:31:17;9.80;99.90
23991;DHT22;12205;50.600;4.608;2023-04-01T09:34:40;9.70;99.90
23991;DHT22;12205;50.600;4.608;2023-04-01T09:37:34;9.80;99.90
23991;DHT22;12205;50.600;4.608;2023-04-01T09:40:16;9.80;99.90
23991;DHT22;12205;50.600;4.608;2023-04-01T09:43:20;9.80;99.90
23991;DHT22;12205;50.600;4.608;2023-04-01T09:46:16;9.80;99.90
23991;DHT22;12205;50.600;4.608;2023-04-01T09:49:11;9.80;99.90
23991;DHT22;12205;50.600;4.608;2023-04-01T09:52:01;9.80;99.90
23991;DHT22;12205;50.600;4.608;2023-04-01T09:54:54;9.70;99.90
23991;DHT22;12205;50.600;4.608;2023-04-01T10:04:49;9.80;99.90
23991;DHT22;12205;50.600;4.608;2023-04-01T10:08:12;9.90;99.90
23991;DHT22;12205;50.600;4.608;2023-04-01T10:11:18;9.90;99.90
23991;DHT22;12205;50.600;4.608;2023-04-01T10:51:04;10.30;99.90
23991;DHT22;12205;50.600;4.608;2023-04-01T10:53:49;10.30;99.90
23991;DHT22;12205;50.600;4.608;2023-04-01T11:01:14;10.50;99.90
23991;DHT22;12205;50.600;4.608;2023-04-01T11:37:54;10.40;99.90
23991;DHT22;12205;50.600;4.608;2023-04-01T11:41:01;10.50;99.90
23991;DHT22;12205;50.600;4.608;2023-04-01T11:44:15;10.50;99.90
23991;DHT22;12205;50.600;4.608;2023-04-01T11:47:40;10.60;99.90
23991;DHT22;12205;50.600;4.608;2023-04-01T11:50:26;10.80;99.90
23991;DHT22;12205;50.600;4.608;2023-04-01T11:53:23;10.70;99.90
23991;DHT22;12205;50.600;4.608;2023-04-01T11:56:07;10.70;99.90
23991;DHT22;12205;50.600;4.608;2023-04-01T11:59:13;10.70;99.90
23991;DHT22;12205;50.600;4.608;2023-04-01T12:02:04;10.90;99.90
23991;DHT22;12205;50.600;4.608;2023-04-01T12:04:58;11.00;99.90
23991;DHT22;12205;50.600;4.608;2023-04-01T12:08:02;10.90;99.90
23991;DHT22;12205;50.600;4.608;2023-04-01T12:10:42;10.90;99.90
23991;DHT22;12205;50.600;4.608;2023-04-01T12:13:23;11.00;99.90
23991;DHT22;12205;50.600;4.608;2023-04-01T12:16:18;11.10;99.90
23991;DHT22;12205;50.600;4.608;2023-04-01T12:19:11;11.00;99.90
23991;DHT22;12205;50.600;4.608;2023-04-01T12:21:51;10.90;99.90
23991;DHT22;12205;50.600;4.608;2023-04-01T12:24:40;10.70;99.90
23991;DHT22;12205;50.600;4.608;2023-04-01T12:30:37;10.50;99.90
23991;DHT22;12205;50.600;4.608;2023-04-01T12:39:31;10.40;99.90
23991;DHT22;12205;50.600;4.608;2023-04-01T12:42:14;10.40;99.90
23991;DHT22;12205;50.600;4.608;2023-04-01T12:45:11;10.40;99.90
23991;DHT22;12205;50.600;4.608;2023-04-01T12:48:10;10.40;99.90
23991;DHT22;12205;50.600;4.608;2023-04-01T12:51:12;10.20;99.90
23991;DHT22;12205;50.600;4.608;2023-04-01T12:57:50;10.40;99.90
23991;DHT22;12205;50.600;4.608;2023-04-01T13:00:58;10.50;99.90
23991;DHT22;12205;50.600;4.608;2023-04-01T13:04:04;10.60;99.90
23991;DHT22;12205;50.600;4.608;2023-04-01T13:06:57;10.60;99.90
23991;DHT22;12205;50.600;4.608;2023-04-01T13:09:45;10.60;99.90
23991;DHT22;12205;50.600;4.608;2023-04-01T13:12:35;10.60;99.90
23991;DHT22;12205;50.600;4.608;2023-04-01T13:15:31;10.70;99.90
23991;DHT22;12205;50.600;4.608;2023-04-01T13:18:17;10.70;99.90
23991;DHT22;12205;50.600;4.608;2023-04-01T13:20:55;10.70;99.90
23991;DHT22;12205;50.600;4.608;2023-04-01T13:23:48;10.60;99.90
23991;DHT22;12205;50.600;4.608;2023-04-01T13:26:27;10.50;99.90
23991;DHT22;12205;50.600;4.608;2023-04-01T13:29:04;10.50;99.90
23991;DHT22;12205;50.600;4.608;2023-04-01T13:31:55;10.40;99.90
23991;DHT22;12205;50.600;4.608;2023-04-01T13:34:46;10.40;99.90
23991;DHT22;12205;50.600;4.608;2023-04-01T13:37:30;10.20;99.90
23991;DHT22;12205;50.600;4.608;2023-04-01T13:40:26;10.10;99.90
23991;DHT22;12205;50.600;4.608;2023-04-01T13:43:07;10.10;99.90
23991;DHT22;12205;50.600;4.608;2023-04-01T13:45:50;10.10;99.90
23991;DHT22;12205;50.600;4.608;2023-04-01T13:48:51;10.10;99.90
23991;DHT22;12205;50.600;4.608;2023-04-01T13:51:52;10.00;99.90
23991;DHT22;12205;50.600;4.608;2023-04-01T13:54:42;9.90;99.90
23991;DHT22;12205;50.600;4.608;2023-04-01T13:57:39;9.90;99.90
23991;DHT22;12205;50.600;4.608;2023-04-01T14:00:35;9.80;99.90
23991;DHT22;12205;50.600;4.608;2023-04-01T14:03:32;9.80;99.90
23991;DHT22;12205;50.600;4.608;2023-04-01T14:06:24;9.80;99.90
23991;DHT22;12205;50.600;4.608;2023-04-01T14:09:30;9.70;99.90
23991;DHT22;12205;50.600;4.608;2023-04-01T14:12:25;9.70;99.90
23991;DHT22;12205;50.600;4.608;2023-04-01T14:15:23;9.70;99.90
23991;DHT22;12205;50.600;4.608;2023-04-01T14:18:17;9.70;99.90
23991;DHT22;12205;50.600;4.608;2023-04-01T14:21:12;9.70;99.90
23991;DHT22;12205;50.600;4.608;2023-04-01T14:30:25;9.80;99.90
23991;DHT22;12205;50.600;4.608;2023-04-01T14:33:10;9.80;99.90
23991;DHT22;12205;50.600;4.608;2023-04-01T14:35:53;9.90;99.90
23991;DHT22;12205;50.600;4.608;2023-04-01T14:38:39;9.90;99.90
23991;DHT22;12205;50.600;4.608;2023-04-01T14:41:21;9.80;99.90
23991;DHT22;12205;50.600;4.608;2023-04-01T14:44:45;9.70;99.90
23991;DHT22;12205;50.600;4.608;2023-04-01T14:47:48;9.60;99.90
23991;DHT22;12205;50.600;4.608;2023-04-01T14:50:21;9.60;99.90
23991;DHT22;12205;50.600;4.608;2023-04-01T14:52:58;9.60;99.90
23991;DHT22;12205;50.600;4.608;2023-04-01T14:55:49;9.50;99.90
23991;DHT22;12205;50.600;4.608;2023-04-01T14:58:21;9.50;99.90
23991;DHT22;12205;50.600;4.608;2023-04-01T15:00:58;9.60;99.90
23991;DHT22;12205;50.600;4.608;2023-04-01T15:03:50;9.50;99.90
23991;DHT22;12205;50.600;4.608;2023-04-01T15:06:41;9.60;99.90
23991;DHT22;12205;50.600;4.608;2023-04-01T15:09:26;9.60;99.90
23991;DHT22;12205;50.600;4.608;2023-04-01T15:12:15;9.50;99.90
23991;DHT22;12205;50.600;4.608;2023-04-01T15:15:00;9.60;99.90
23991;DHT22;12205;50.600;4.608;2023-04-01T15:17:53;9.60;99.90
23991;DHT22;12205;50.600;4.608;2023-04-01T15:23:34;9.60;99.90
23991;DHT22;12205;50.600;4.608;2023-04-01T15:26:17;9.70;99.90
23991;DHT22;12205;50.600;4.608;2023-04-01T15:29:11;9.70;99.90
23991;DHT22;12205;50.600;4.608;2023-04-01T15:32:04;9.70;99.90
23991;DHT22;12205;50.600;4.608;2023-04-01T15:34:45;9.70;99.90
23991;DHT22;12205;50.600;4.608;2023-04-01T15:37:30;9.60;99.90
23991;DHT22;12205;50.600;4.608;2023-04-01T15:40:17;9.60;99.90
23991;DHT22;12205;50.600;4.608;2023-04-01T15:42:57;9.50;99.90
23991;DHT22;12205;50.600;4.608;2023-04-01T15:45:43;9.50;99.90
23991;DHT22;12205;50.600;4.608;2023-04-01T15:48:43;9.50;99.90
23991;DHT22;12205;50.600;4.608;2023-04-01T15:51:31;9.40;99.90
23991;DHT22;12205;50.600;4.608;2023-04-01T15:54:32;9.30;99.90
23991;DHT22;12205;50.600;4.608;2023-04-01T15:57:28;9.40;99.90
23991;DHT22;12205;50.600;4.608;2023-04-01T16:00:12;9.30;99.90
23991;DHT22;12205;50.600;4.608;2023-04-01T16:03:14;9.30;99.90
23991;DHT22;12205;50.600;4.608;2023-04-01T16:05:56;9.40;99.90
23991;DHT22;12205;50.600;4.608;2023-04-01T16:08:55;9.30;99.90
23991;DHT22;12205;50.600;4.608;2023-04-01T16:11:43;9.30;99.90
23991;DHT22;12205;50.600;4.608;2023-04-01T16:14:21;9.20;99.90
23991;DHT22;12205;50.600;4.608;2023-04-01T16:17:08;9.20;99.90
23991;DHT22;12205;50.600;4.608;2023-04-01T16:19:51;9.20;99.90
23991;DHT22;12205;50.600;4.608;2023-04-01T16:22:23;9.20;99.90
23991;DHT22;12205;50.600;4.608;2023-04-01T16:25:14;9.10;99.90
23991;DHT22;12205;50.600;4.608;2023-04-01T16:27:50;9.20;99.90
23991;DHT22;12205;50.600;4.608;2023-04-01T16:30:34;9.20;99.90
23991;DHT22;12205;50.600;4.608;2023-04-01T16:33:09;9.20;99.90
23991;DHT22;12205;50.600;4.608;2023-04-01T16:35:44;9.20;99.90
23991;DHT22;12205;50.600;4.608;2023-04-01T16:38:24;9.20;99.90
23991;DHT22;12205;50.600;4.608;2023-04-01T16:41:10;9.20;99.90
23991;DHT22;12205;50.600;4.608;2023-04-01T16:43:42;9.20;99.90
23991;DHT22;12205;50.600;4.608;2023-04-01T16:46:27;9.20;99.90
23991;DHT22;12205;50.600;4.608;2023-04-01T16:49:02;9.10;99.90
23991;DHT22;12205;50.600;4.608;2023-04-01T16:51:46;9.10;99.90
23991;DHT22;12205;50.600;4.608;2023-04-01T16:54:29;9.00;99.90
23991;DHT22;12205;50.600;4.608;2023-04-01T16:57:11;8.80;99.90
23991;DHT22;12205;50.600;4.608;2023-04-01T16:59:48;8.70;99.90
23991;DHT22;12205;50.600;4.608;2023-04-01T17:02:31;8.70;99.90
23991;DHT22;12205;50.600;4.608;2023-04-01T17:05:05;8.80;99.90
23991;DHT22;12205;50.600;4.608;2023-04-01T17:07:44;8.70;99.90
23991;DHT22;12205;50.600;4.608;2023-04-01T17:10:36;8.80;99.90
23991;DHT22;12205;50.600;4.608;2023-04-01T17:13:29;8.80;99.90
23991;DHT22;12205;50.600;4.608;2023-04-01T17:16:20;8.80;99.90
23991;DHT22;12205;50.600;4.608;2023-04-01T17:19:05;8.70;99.90
23991;DHT22;12205;50.600;4.608;2023-04-01T17:21:49;8.70;99.90
23991;DHT22;12205;50.600;4.608;2023-04-01T17:24:41;8.70;99.90
23991;DHT22;12205;50.600;4.608;2023-04-01T17:27:29;8.70;99.90
23991;DHT22;12205;50.600;4.608;2023-04-01T17:30:13;8.70;99.90
23991;DHT22;12205;50.600;4.608;2023-04-01T17:36:32;8.70;99.90
23991;DHT22;12205;50.600;4.608;2023-04-01T17:39:27;8.70;99.90
23991;DHT22;12205;50.600;4.608;2023-04-01T17:42:06;8.70;99.90
23991;DHT22;12205;50.600;4.608;2023-04-01T17:44:49;8.70;99.90
23991;DHT22;12205;50.600;4.608;2023-04-01T17:47:35;8.60;99.90
23991;DHT22;12205;50.600;4.608;2023-04-01T17:50:18;8.60;99.90
23991;DHT22;12205;50.600;4.608;2023-04-01T17:53:05;8.60;99.90
23991;DHT22;12205;50.600;4.608;2023-04-01T17:55:50;8.60;99.90
23991;DHT22;12205;50.600;4.608;2023-04-01T17:58:29;8.70;99.90
23991;DHT22;12205;50.600;4.608;2023-04-01T18:01:17;8.70;99.90
23991;DHT22;12205;50.600;4.608;2023-04-01T18:04:21;8.60;99.90
23991;DHT22;12205;50.600;4.608;2023-04-01T18:07:12;8.70;99.90
23991;DHT22;12205;50.600;4.608;2023-04-01T18:09:59;8.70;99.90
23991;DHT22;12205;50.600;4.608;2023-04-01T18:12:45;8.60;99.90
23991;DHT22;12205;50.600;4.608;2023-04-01T18:15:33;8.70;99.90
23991;DHT22;12205;50.600;4.608;2023-04-01T18:18:19;8.70;99.90
23991;DHT22;12205;50.600;4.608;2023-04-01T18:21:06;8.70;99.90
23991;DHT22;12205;50.600;4.608;2023-04-01T18:23:43;8.70;99.90
23991;DHT22;12205;50.600;4.608;2023-04-01T18:26:20;8.70;99.90
23991;DHT22;12205;50.600;4.608;2023-04-01T18:28:54;8.70;99.90
23991;DHT22;12205;50.600;4.608;2023-04-01T18:31:26;8.70;99.90
23991;DHT22;12205;50.600;4.608;2023-04-01T18:34:08;8.70;99.90
23991;DHT22;12205;50.600;4.608;2023-04-01T18:36:46;8.70;99.90
23991;DHT22;12205;50.600;4.608;2023-04-01T18:39:18;8.70;99.90
23991;DHT22;12205;50.600;4.608;2023-04-01T18:41:59;8.60;99.90
23991;DHT22;12205;50.600;4.608;2023-04-01T18:44:41;8.60;99.90
23991;DHT22;12205;50.600;4.608;2023-04-01T18:47:21;8.60;99.90
23991;DHT22;12205;50.600;4.608;2023-04-01T18:50:00;8.60;99.90
23991;DHT22;12205;50.600;4.608;2023-04-01T18:52:36;8.60;99.90
23991;DHT22;12205;50.600;4.608;2023-04-01T18:55:23;8.60;99.90
23991;DHT22;12205;50.600;4.608;2023-04-01T18:58:11;8.60;99.90
23991;DHT22;12205;50.600;4.608;2023-04-01T19:00:49;8.60;99.90
23991;DHT22;12205;50.600;4.608;2023-04-01T19:03:34;8.60;99.90
23991;DHT22;12205;50.600;4.608;2023-04-01T19:06:17;8.50;99.90
23991;DHT22;12205;50.600;4.608;2023-04-01T19:08:48;8.60;99.90
23991;DHT22;12205;50.600;4.608;2023-04-01T19:11:23;8.60;99.90
23991;DHT22;12205;50.600;4.608;2023-04-01T19:14:06;8.60;99.90